createdAt,value
2017-08-04T00:00:06.587Z,20.10
2017-08-04T00:02:34.198Z,20.00
2017-08-04T00:05:01.852Z,20.00
2017-08-04T00:07:29.660Z,20.00
2017-08-04T00:09:57.301Z,20.00
2017-08-04T00:12:24.912Z,20.00
2017-08-04T00:14:52.529Z,19.90
2017-08-04T00:17:21.078Z,19.90
2017-08-04T00:19:48.699Z,19.80
2017-08-04T00:22:16.355Z,19.80
2017-08-04T00:24:43.973Z,19.80
2017-08-04T00:27:11.575Z,19.80
2017-08-04T00:29:39.227Z,19.70
2017-08-04T00:32:07.604Z,19.60
2017-08-04T00:34:35.247Z,19.60
2017-08-04T00:37:02.875Z,19.70
2017-08-04T00:39:30.527Z,19.60
2017-08-04T00:41:58.991Z,19.60
2017-08-04T00:44:27.403Z,19.50
2017-08-04T00:46:55.064Z,19.40
2017-08-04T00:49:22.689Z,19.50
2017-08-04T00:51:50.309Z,19.40
2017-08-04T00:54:18.729Z,19.40
2017-08-04T00:56:46.362Z,19.40
2017-08-04T00:59:14.016Z,19.40
2017-08-04T01:01:41.641Z,19.30
2017-08-04T01:04:09.269Z,19.30
2017-08-04T01:06:36.918Z,19.30
2017-08-04T01:09:04.536Z,19.30
2017-08-04T01:11:32.955Z,19.30
2017-08-04T01:14:01.486Z,19.20
2017-08-04T01:16:29.118Z,19.20
2017-08-04T01:18:56.765Z,19.30
2017-08-04T01:21:25.145Z,19.30
2017-08-04T01:23:52.796Z,19.30
2017-08-04T01:26:20.434Z,19.30
2017-08-04T01:28:48.067Z,19.30
2017-08-04T01:31:15.722Z,19.40
2017-08-04T01:33:44.112Z,19.30
2017-08-04T01:36:11.744Z,19.20
2017-08-04T01:38:39.373Z,19.20
2017-08-04T01:41:07.756Z,19.20
2017-08-04T01:43:41.142Z,19.10
2017-08-04T01:46:08.792Z,19.20
2017-08-04T01:48:36.482Z,19.10
2017-08-04T01:51:04.108Z,19.10
2017-08-04T01:53:31.736Z,19.10
2017-08-04T01:56:00.083Z,19.10
2017-08-04T01:58:27.695Z,19.10
2017-08-04T02:00:56.150Z,19.10
2017-08-04T02:03:23.782Z,19.00
2017-08-04T02:05:51.394Z,19.20
2017-08-04T02:08:19.037Z,19.20
2017-08-04T02:10:46.793Z,19.20
2017-08-04T02:13:14.442Z,19.30
2017-08-04T02:15:42.058Z,19.30
2017-08-04T02:18:10.490Z,19.30
2017-08-04T02:20:38.148Z,19.20
2017-08-04T02:23:06.577Z,19.30
2017-08-04T02:25:34.248Z,19.20
2017-08-04T02:28:01.881Z,19.30
2017-08-04T02:30:29.573Z,19.30
2017-08-04T02:32:57.971Z,19.40
2017-08-04T02:35:25.599Z,19.30
2017-08-04T02:37:53.254Z,19.40
2017-08-04T02:40:20.856Z,19.50
2017-08-04T02:42:48.468Z,19.50
2017-08-04T02:45:16.121Z,19.40
2017-08-04T02:47:43.742Z,19.40
2017-08-04T02:50:11.393Z,19.50
2017-08-04T02:52:39.240Z,19.50
2017-08-04T02:55:06.865Z,19.50
2017-08-04T02:57:35.277Z,19.60
2017-08-04T03:00:02.938Z,19.50
2017-08-04T03:02:30.588Z,19.60
2017-08-04T03:04:58.212Z,19.70
2017-08-04T03:07:25.820Z,19.80
2017-08-04T03:09:54.224Z,20.00
2017-08-04T03:12:21.837Z,20.00
2017-08-04T03:14:49.584Z,20.10
2017-08-04T03:17:17.207Z,20.10
2017-08-04T03:19:44.811Z,20.00
2017-08-04T03:22:12.476Z,20.10
2017-08-04T03:24:40.085Z,20.00
2017-08-04T03:27:07.737Z,20.10
2017-08-04T03:29:35.365Z,20.10
2017-08-04T03:32:03.041Z,20.10
2017-08-04T03:34:30.689Z,20.10
2017-08-04T03:36:58.289Z,20.10
2017-08-04T03:39:26.724Z,20.30
2017-08-04T03:41:54.340Z,20.20
2017-08-04T03:44:21.939Z,20.40
2017-08-04T03:46:50.346Z,20.50
2017-08-04T03:49:17.960Z,20.50
2017-08-04T03:51:46.363Z,20.50
2017-08-04T03:54:13.988Z,20.50
2017-08-04T03:56:41.607Z,20.70
2017-08-04T03:59:10.128Z,20.80
2017-08-04T04:01:37.744Z,20.70
2017-08-04T04:04:05.403Z,20.80
2017-08-04T04:06:33.056Z,20.80
2017-08-04T04:09:00.664Z,20.80
2017-08-04T04:11:29.099Z,20.80
2017-08-04T04:13:56.730Z,20.70
2017-08-04T04:16:24.411Z,20.70
2017-08-04T04:18:52.805Z,20.70
2017-08-04T04:21:20.444Z,20.70
2017-08-04T04:23:48.090Z,20.60
2017-08-04T04:26:15.722Z,20.60
2017-08-04T04:28:44.124Z,20.60
2017-08-04T04:31:11.729Z,20.50
2017-08-04T04:33:40.124Z,20.60
2017-08-04T04:36:07.756Z,20.50
2017-08-04T04:38:35.362Z,20.60
2017-08-04T04:41:03.027Z,20.80
2017-08-04T04:43:30.695Z,20.70
2017-08-04T04:45:58.323Z,20.70
2017-08-04T04:48:26.731Z,20.70
2017-08-04T04:50:54.378Z,20.70
2017-08-04T04:53:22.041Z,20.80
2017-08-04T04:55:49.664Z,20.90
2017-08-04T04:58:17.264Z,20.90
2017-08-04T05:00:44.910Z,20.90
2017-08-04T05:03:12.693Z,21.00
2017-08-04T05:05:40.390Z,21.00
2017-08-04T05:08:08.013Z,21.10
2017-08-04T05:10:35.659Z,21.10
2017-08-04T05:13:03.410Z,21.10
2017-08-04T05:15:31.030Z,21.20
2017-08-04T05:17:58.730Z,21.20
2017-08-04T05:20:26.374Z,21.30
2017-08-04T05:22:53.998Z,21.30
2017-08-04T05:25:21.656Z,21.30
2017-08-04T05:27:49.310Z,21.40
2017-08-04T05:30:17.017Z,21.70
2017-08-04T05:32:44.630Z,21.80
2017-08-04T05:35:12.253Z,21.80
2017-08-04T05:37:40.002Z,21.90
2017-08-04T05:40:07.648Z,22.10
2017-08-04T05:42:35.290Z,22.30
2017-08-04T05:45:02.954Z,22.40
2017-08-04T05:47:30.605Z,22.40
2017-08-04T05:49:58.251Z,22.50
2017-08-04T05:52:25.897Z,22.60
2017-08-04T05:54:53.532Z,22.60
2017-08-04T05:57:21.145Z,22.60
2017-08-04T05:59:48.753Z,22.60
2017-08-04T06:02:16.438Z,22.70
2017-08-04T06:04:44.066Z,22.70
2017-08-04T06:07:11.713Z,22.80
2017-08-04T06:09:39.316Z,22.80
2017-08-04T06:12:06.927Z,22.80
2017-08-04T06:14:34.574Z,23.00
2017-08-04T06:17:02.192Z,23.10
2017-08-04T06:19:29.840Z,23.20
2017-08-04T06:21:57.439Z,23.30
2017-08-04T06:24:25.056Z,23.20
2017-08-04T06:26:52.708Z,23.20
2017-08-04T06:29:20.315Z,23.10
2017-08-04T06:31:47.955Z,22.90
2017-08-04T06:34:16.324Z,23.10
2017-08-04T06:36:44.696Z,23.30
2017-08-04T06:39:12.377Z,23.30
2017-08-04T06:41:40.000Z,23.50
2017-08-04T06:44:07.713Z,23.70
2017-08-04T06:46:35.333Z,23.90
2017-08-04T06:49:14.916Z,23.80
2017-08-04T06:51:54.363Z,23.90
2017-08-04T06:54:34.803Z,24.00
2017-08-04T06:57:02.458Z,24.00
2017-08-04T06:59:30.063Z,23.80
2017-08-04T07:01:57.703Z,23.70
2017-08-04T07:04:26.076Z,23.50
2017-08-04T07:06:53.722Z,23.50
2017-08-04T07:09:21.339Z,23.50
2017-08-04T07:11:48.968Z,23.70
2017-08-04T07:14:16.640Z,23.80
2017-08-04T07:16:45.216Z,23.80
2017-08-04T07:19:12.904Z,23.70
2017-08-04T07:21:40.538Z,23.60
2017-08-04T07:24:08.183Z,23.50
2017-08-04T07:26:35.838Z,23.50
2017-08-04T07:29:03.495Z,23.70
2017-08-04T07:31:31.158Z,23.90
2017-08-04T07:33:58.793Z,24.10
2017-08-04T07:36:26.465Z,24.40
2017-08-04T07:38:54.114Z,24.40
2017-08-04T07:41:21.725Z,24.80
2017-08-04T07:43:49.386Z,25.60
2017-08-04T07:46:17.001Z,25.70
2017-08-04T07:48:44.603Z,25.90
2017-08-04T07:51:12.245Z,25.90
2017-08-04T07:53:39.988Z,26.00
2017-08-04T07:56:07.653Z,25.80
2017-08-04T07:58:35.247Z,25.70
2017-08-04T08:01:02.851Z,25.70
2017-08-04T08:03:31.262Z,25.30
2017-08-04T08:05:58.880Z,25.20
2017-08-04T08:08:26.522Z,25.30
2017-08-04T08:10:54.149Z,25.40
2017-08-04T08:13:22.531Z,26.00
2017-08-04T08:15:50.173Z,25.90
2017-08-04T08:18:18.554Z,27.30
2017-08-04T08:20:46.388Z,27.20
2017-08-04T08:23:14.000Z,28.20
2017-08-04T08:25:41.604Z,29.40
2017-08-04T08:28:09.276Z,29.50
2017-08-04T08:30:36.898Z,29.30
2017-08-04T08:33:04.549Z,29.40
2017-08-04T08:35:32.172Z,31.00
2017-08-04T08:38:00.615Z,31.10
2017-08-04T08:40:28.253Z,31.00
2017-08-04T08:42:55.881Z,31.70
2017-08-04T08:45:23.512Z,32.10
2017-08-04T08:47:52.024Z,32.20
2017-08-04T08:50:20.402Z,32.90
2017-08-04T08:52:48.819Z,33.50
2017-08-04T08:55:16.427Z,33.40
2017-08-04T08:57:44.061Z,33.50
2017-08-04T09:00:11.678Z,32.60
2017-08-04T09:02:39.306Z,32.50
2017-08-04T09:05:06.966Z,33.00
2017-08-04T09:07:34.588Z,34.10
2017-08-04T09:10:02.247Z,33.90
2017-08-04T09:12:30.010Z,33.90
2017-08-04T09:14:57.625Z,33.80
2017-08-04T09:17:25.276Z,33.50
2017-08-04T09:19:52.875Z,32.70
2017-08-04T09:22:21.291Z,32.10
2017-08-04T09:24:48.890Z,32.00
2017-08-04T09:27:16.518Z,33.10
2017-08-04T09:29:44.934Z,32.30
2017-08-04T09:32:12.544Z,32.20
2017-08-04T09:34:40.477Z,31.90
2017-08-04T09:37:08.889Z,30.60
2017-08-04T09:39:36.568Z,30.50
2017-08-04T09:42:04.204Z,29.80
2017-08-04T09:44:31.857Z,28.80
2017-08-04T09:46:59.577Z,28.50
2017-08-04T09:49:27.217Z,28.80
2017-08-04T09:51:55.088Z,29.40
2017-08-04T09:54:22.852Z,29.30
2017-08-04T09:56:51.413Z,29.30
2017-08-04T09:59:19.948Z,30.30
2017-08-04T10:01:47.592Z,31.60
2017-08-04T10:04:15.282Z,32.50
2017-08-04T10:06:44.522Z,32.60
2017-08-04T10:09:12.322Z,31.60
2017-08-04T10:11:42.088Z,30.60
2017-08-04T10:14:10.456Z,30.50
2017-08-04T10:16:38.112Z,30.70
2017-08-04T10:19:05.755Z,31.40
2017-08-04T10:21:34.028Z,32.00
2017-08-04T10:24:04.935Z,32.40
2017-08-04T10:26:32.706Z,32.50
2017-08-04T10:29:00.444Z,32.90
2017-08-04T10:31:28.116Z,32.70
2017-08-04T10:33:55.757Z,33.00
2017-08-04T10:36:23.420Z,33.80
2017-08-04T10:38:51.863Z,33.80
2017-08-04T10:41:20.769Z,33.70
2017-08-04T10:43:49.159Z,33.80
2017-08-04T10:46:16.805Z,33.70
2017-08-04T10:48:44.488Z,33.50
2017-08-04T10:51:12.124Z,33.40
2017-08-04T10:53:39.747Z,33.00
2017-08-04T10:56:07.392Z,32.30
2017-08-04T10:58:35.026Z,32.10
2017-08-04T11:01:02.663Z,31.80
2017-08-04T11:03:30.280Z,31.70
2017-08-04T11:05:57.899Z,31.50
2017-08-04T11:08:25.545Z,31.00
2017-08-04T11:10:53.165Z,30.50
2017-08-04T11:13:21.237Z,30.00
2017-08-04T11:15:48.865Z,29.70
2017-08-04T11:18:16.485Z,29.40
2017-08-04T11:20:44.927Z,28.90
2017-08-04T11:23:12.567Z,28.90
2017-08-04T11:25:40.266Z,29.00
2017-08-04T11:28:07.869Z,28.80
2017-08-04T11:30:35.512Z,28.70
2017-08-04T11:33:03.142Z,28.80
2017-08-04T11:35:30.832Z,28.90
2017-08-04T11:37:59.241Z,28.90
2017-08-04T11:40:26.860Z,28.90
2017-08-04T11:42:54.718Z,28.70
2017-08-04T11:45:22.403Z,28.70
2017-08-04T11:47:50.069Z,28.30
2017-08-04T11:50:17.702Z,28.20
2017-08-04T11:52:45.307Z,28.20
2017-08-04T11:55:12.916Z,28.30
2017-08-04T11:57:40.560Z,28.10
2017-08-04T12:00:08.297Z,28.20
2017-08-04T12:02:35.985Z,28.20
2017-08-04T12:05:03.617Z,28.10
2017-08-04T12:07:31.230Z,28.20
2017-08-04T12:09:58.893Z,28.20
2017-08-04T12:12:27.292Z,28.20
2017-08-04T12:14:54.933Z,28.10
2017-08-04T12:17:22.535Z,28.40
2017-08-04T12:19:50.158Z,28.40
2017-08-04T12:22:17.813Z,28.50
2017-08-04T12:24:45.421Z,28.40
2017-08-04T12:27:13.068Z,28.50
2017-08-04T12:29:40.683Z,28.60
2017-08-04T12:32:08.296Z,28.40
2017-08-04T12:34:35.945Z,28.30
2017-08-04T12:37:03.551Z,28.00
2017-08-04T12:39:31.197Z,27.80
2017-08-04T12:41:58.816Z,27.60
2017-08-04T12:44:26.431Z,27.50
2017-08-04T12:46:54.073Z,27.30
2017-08-04T12:49:21.671Z,27.40
2017-08-04T12:51:49.327Z,27.60
2017-08-04T12:54:16.939Z,27.80
2017-08-04T12:56:44.541Z,28.10
2017-08-04T12:59:12.179Z,28.00
2017-08-04T13:01:39.844Z,28.00
2017-08-04T13:04:07.484Z,27.90
2017-08-04T13:06:35.842Z,27.80
2017-08-04T13:09:03.481Z,27.70
2017-08-04T13:11:31.143Z,27.60
2017-08-04T13:13:58.742Z,27.70
2017-08-04T13:16:27.150Z,27.80
2017-08-04T13:18:54.764Z,27.70
2017-08-04T13:21:22.380Z,27.80
2017-08-04T13:23:50.021Z,28.00
2017-08-04T13:26:17.630Z,28.10
2017-08-04T13:28:45.286Z,28.00
2017-08-04T13:31:12.889Z,27.90
2017-08-04T13:33:41.259Z,28.00
2017-08-04T13:36:09.706Z,28.20
2017-08-04T13:38:43.103Z,28.10
2017-08-04T13:41:11.524Z,28.10
2017-08-04T13:43:39.154Z,28.00
2017-08-04T13:46:06.759Z,27.90
2017-08-04T13:48:35.169Z,27.80
2017-08-04T13:51:02.767Z,27.80
2017-08-04T13:53:31.168Z,27.70
2017-08-04T13:55:58.789Z,27.60
2017-08-04T13:58:27.029Z,27.70
2017-08-04T14:00:54.740Z,27.60
2017-08-04T14:03:22.359Z,27.50
2017-08-04T14:05:50.065Z,27.40
2017-08-04T14:08:17.697Z,27.40
2017-08-04T14:10:45.312Z,27.40
2017-08-04T14:13:12.956Z,27.40
2017-08-04T14:15:40.609Z,27.50
2017-08-04T14:18:08.262Z,27.50
2017-08-04T14:20:35.877Z,27.80
2017-08-04T14:23:03.483Z,27.80
2017-08-04T14:25:31.129Z,27.80
2017-08-04T14:27:58.752Z,27.70
2017-08-04T14:30:26.391Z,27.40
2017-08-04T14:32:54.022Z,27.20
2017-08-04T14:35:21.635Z,27.30
2017-08-04T14:37:49.266Z,27.30
2017-08-04T14:40:16.891Z,27.30
2017-08-04T14:42:44.547Z,27.10
2017-08-04T14:45:12.165Z,27.00
2017-08-04T14:47:39.967Z,26.80
2017-08-04T14:50:07.611Z,26.80
2017-08-04T14:52:35.238Z,26.80
2017-08-04T14:55:02.979Z,26.80
2017-08-04T14:57:31.024Z,26.90
2017-08-04T14:59:58.635Z,26.90
2017-08-04T15:02:29.995Z,26.90
2017-08-04T15:04:57.615Z,26.80
2017-08-04T15:07:25.266Z,26.80
2017-08-04T15:09:52.868Z,26.60
2017-08-04T15:12:20.510Z,26.60
2017-08-04T15:14:48.242Z,26.50
2017-08-04T15:17:15.849Z,26.40
2017-08-04T15:19:43.491Z,26.40
2017-08-04T15:22:11.099Z,26.50
2017-08-04T15:24:38.709Z,26.60
2017-08-04T15:27:06.345Z,26.60
2017-08-04T15:29:33.993Z,26.50
2017-08-04T15:32:01.624Z,26.40
2017-08-04T15:34:29.231Z,26.40
2017-08-04T15:36:56.853Z,26.40
2017-08-04T15:39:24.534Z,26.20
2017-08-04T15:41:52.904Z,26.20
2017-08-04T15:44:21.365Z,26.10
2017-08-04T15:46:49.749Z,26.10
2017-08-04T15:49:17.365Z,26.00
2017-08-04T15:51:44.997Z,26.00
2017-08-04T15:54:12.610Z,26.00
2017-08-04T15:56:40.241Z,25.90
2017-08-04T15:59:07.848Z,25.90
2017-08-04T16:01:35.452Z,25.90
2017-08-04T16:04:03.083Z,25.90
2017-08-04T16:06:30.684Z,25.90
2017-08-04T16:08:58.337Z,25.90
2017-08-04T16:11:26.733Z,25.80
2017-08-04T16:13:54.354Z,25.80
2017-08-04T16:16:22.781Z,25.80
2017-08-04T16:18:50.469Z,25.80
2017-08-04T16:21:18.158Z,25.90
2017-08-04T16:23:45.786Z,25.90
2017-08-04T16:26:13.424Z,25.90
2017-08-04T16:28:41.081Z,25.80
2017-08-04T16:31:08.747Z,25.80
2017-08-04T16:33:36.498Z,25.80
2017-08-04T16:36:04.114Z,25.80
2017-08-04T16:38:31.763Z,25.70
2017-08-04T16:40:59.403Z,25.70
2017-08-04T16:43:27.017Z,25.60
2017-08-04T16:45:54.673Z,25.70
2017-08-04T16:48:22.283Z,25.60
2017-08-04T16:50:49.901Z,25.60
2017-08-04T16:53:17.544Z,25.60
2017-08-04T16:55:45.154Z,25.70
2017-08-04T16:58:13.551Z,25.50
2017-08-04T17:00:41.157Z,25.40
2017-08-04T17:03:09.412Z,25.40
2017-08-04T17:05:37.049Z,25.40
2017-08-04T17:08:04.651Z,25.30
2017-08-04T17:10:32.306Z,25.30
2017-08-04T17:12:59.985Z,25.30
2017-08-04T17:15:27.608Z,25.30
2017-08-04T17:17:55.247Z,25.20
2017-08-04T17:20:22.849Z,25.10
2017-08-04T17:22:51.268Z,25.10
2017-08-04T17:25:18.891Z,25.00
2017-08-04T17:27:46.508Z,25.00
2017-08-04T17:30:14.915Z,24.90
2017-08-04T17:32:42.512Z,24.90
2017-08-04T17:35:10.164Z,24.90
2017-08-04T17:37:38.553Z,24.80
2017-08-04T17:40:06.172Z,24.70
2017-08-04T17:42:34.581Z,24.80
2017-08-04T17:45:02.200Z,24.70
2017-08-04T17:47:29.857Z,24.70
2017-08-04T17:49:57.472Z,24.60
2017-08-04T17:52:25.071Z,24.60
2017-08-04T17:54:52.709Z,24.50
2017-08-04T17:57:20.320Z,24.40
2017-08-04T17:59:48.735Z,24.30
2017-08-04T18:02:28.144Z,24.30
2017-08-04T18:04:55.785Z,24.30
2017-08-04T18:07:23.400Z,24.20
2017-08-04T18:09:51.773Z,24.20
2017-08-04T18:12:20.195Z,24.10
2017-08-04T18:14:47.817Z,24.10
2017-08-04T18:17:15.478Z,24.10
2017-08-04T18:19:43.089Z,24.00
2017-08-04T18:22:10.712Z,24.00
2017-08-04T18:24:39.129Z,23.90
2017-08-04T18:27:06.743Z,23.90
2017-08-04T18:29:34.435Z,23.80
2017-08-04T18:32:02.049Z,23.80
2017-08-04T18:34:29.664Z,23.70
2017-08-04T18:36:57.297Z,23.70
2017-08-04T18:39:24.913Z,23.50
2017-08-04T18:41:52.611Z,23.50
2017-08-04T18:44:20.216Z,23.50
2017-08-04T18:46:47.846Z,23.40
2017-08-04T18:49:15.471Z,23.40
2017-08-04T18:51:43.085Z,23.40
2017-08-04T18:54:11.513Z,23.20
2017-08-04T18:56:39.129Z,23.20
2017-08-04T18:59:06.733Z,23.20
2017-08-04T19:01:34.415Z,23.20
2017-08-04T19:04:02.024Z,23.20
2017-08-04T19:06:30.439Z,23.10
2017-08-04T19:08:58.048Z,23.00
2017-08-04T19:11:26.448Z,23.10
2017-08-04T19:13:54.111Z,23.00
2017-08-04T19:16:21.872Z,23.10
2017-08-04T19:18:49.524Z,23.00
2017-08-04T19:21:17.929Z,23.00
2017-08-04T19:23:45.545Z,22.90
2017-08-04T19:26:13.184Z,22.90
2017-08-04T19:28:40.805Z,22.90
2017-08-04T19:31:08.484Z,23.00
2017-08-04T19:33:36.885Z,22.90
2017-08-04T19:36:04.925Z,22.90
2017-08-04T19:38:32.763Z,22.90
2017-08-04T19:41:00.382Z,22.80
2017-08-04T19:43:28.030Z,22.80
2017-08-04T19:45:55.656Z,22.70
2017-08-04T19:48:23.280Z,22.70
2017-08-04T19:50:50.920Z,22.60
2017-08-04T19:53:18.541Z,22.60
2017-08-04T19:55:46.175Z,22.50
2017-08-04T19:58:13.784Z,22.50
2017-08-04T20:00:41.397Z,22.50
2017-08-04T20:03:09.063Z,22.40
2017-08-04T20:05:36.821Z,22.50
2017-08-04T20:08:04.487Z,22.50
2017-08-04T20:10:32.107Z,22.50
2017-08-04T20:12:59.756Z,22.50
2017-08-04T20:15:27.400Z,22.60
2017-08-04T20:17:55.016Z,22.60
2017-08-04T20:20:23.426Z,22.50
2017-08-04T20:22:51.104Z,22.40
2017-08-04T20:25:18.721Z,22.30
2017-08-04T20:27:46.397Z,22.20
2017-08-04T20:30:14.018Z,22.00
2017-08-04T20:32:41.665Z,21.80
2017-08-04T20:35:09.312Z,21.60
2017-08-04T20:37:36.921Z,21.50
2017-08-04T20:40:04.559Z,21.40
2017-08-04T20:42:32.172Z,21.40
2017-08-04T20:44:59.837Z,21.20
2017-08-04T20:47:27.444Z,21.10
2017-08-04T20:49:55.075Z,20.90
2017-08-04T20:52:22.732Z,20.90
2017-08-04T20:54:50.361Z,20.90
2017-08-04T20:57:18.013Z,20.70
2017-08-04T20:59:45.641Z,20.60
2017-08-04T21:02:13.559Z,20.70
2017-08-04T21:04:41.296Z,20.60
2017-08-04T21:07:08.909Z,20.60
2017-08-04T21:09:36.607Z,20.50
2017-08-04T21:12:04.987Z,20.10
2017-08-04T21:14:33.383Z,20.10
2017-08-04T21:17:01.042Z,20.00
2017-08-04T21:19:28.662Z,20.10
2017-08-04T21:21:56.308Z,20.10
2017-08-04T21:24:23.925Z,20.10
2017-08-04T21:26:51.532Z,20.00
2017-08-04T21:29:19.179Z,20.00
2017-08-04T21:31:46.806Z,20.00
2017-08-04T21:34:15.197Z,20.00
2017-08-04T21:36:42.821Z,20.00
2017-08-04T21:39:10.455Z,19.90
2017-08-04T21:41:38.094Z,19.90
2017-08-04T21:44:05.912Z,19.90
2017-08-04T21:46:34.308Z,19.90
2017-08-04T21:49:01.943Z,19.80
2017-08-04T21:51:29.586Z,19.80
2017-08-04T21:53:57.221Z,19.80
2017-08-04T21:56:25.599Z,19.80
2017-08-04T21:58:53.244Z,19.80
2017-08-04T22:01:21.019Z,19.80
2017-08-04T22:03:48.628Z,19.80
2017-08-04T22:06:17.027Z,19.90
2017-08-04T22:08:46.905Z,19.90
2017-08-04T22:11:14.561Z,19.90
2017-08-04T22:13:42.165Z,19.80
2017-08-04T22:16:09.831Z,19.70
2017-08-04T22:18:38.243Z,19.60
2017-08-04T22:21:05.851Z,19.50
2017-08-04T22:23:34.255Z,19.60
2017-08-04T22:26:01.885Z,19.50
2017-08-04T22:28:29.521Z,19.60
2017-08-04T22:30:57.155Z,19.60
2017-08-04T22:33:24.778Z,19.70
2017-08-04T22:35:53.189Z,20.10
2017-08-04T22:38:20.804Z,20.00
2017-08-04T22:40:50.079Z,20.30
2017-08-04T22:43:18.498Z,20.40
2017-08-04T22:45:46.097Z,20.30
2017-08-04T22:48:14.501Z,20.30
2017-08-04T22:50:42.113Z,20.30
2017-08-04T22:53:09.850Z,20.40
2017-08-04T22:55:38.258Z,20.60
2017-08-04T22:58:05.888Z,20.50
2017-08-04T23:00:33.545Z,20.60
2017-08-04T23:03:01.152Z,20.60
2017-08-04T23:05:29.606Z,20.80
2017-08-04T23:07:58.006Z,20.90
2017-08-04T23:10:25.662Z,20.80
2017-08-04T23:12:53.309Z,20.90
2017-08-04T23:15:20.937Z,21.00
2017-08-04T23:17:48.545Z,21.10
2017-08-04T23:20:16.191Z,21.20
2017-08-04T23:22:43.810Z,21.20
2017-08-04T23:25:11.440Z,21.20
2017-08-04T23:27:39.080Z,21.20
2017-08-04T23:30:06.706Z,21.20
2017-08-04T23:32:35.127Z,21.20
2017-08-04T23:35:02.738Z,21.10
2017-08-04T23:37:30.370Z,21.10
2017-08-04T23:39:57.973Z,21.10
2017-08-04T23:42:25.605Z,21.10
2017-08-04T23:44:53.243Z,21.10
2017-08-04T23:47:20.916Z,21.20
2017-08-04T23:49:48.551Z,21.20
2017-08-04T23:52:16.171Z,21.20
2017-08-04T23:54:43.777Z,21.10
2017-08-04T23:57:12.198Z,21.10
2017-08-04T23:59:39.901Z,21.10
